sensor_id;sensor_type;location;lat;lon;timestamp;pressure;altitude;pressure_sealevel;temperature;humidity
19674;BME280;9986;50.610;7.230;2023-09-08T00:03:39;147510.28;;;18.74;100.00
19674;BME280;9986;50.610;7.230;2023-09-08T00:08:52;147317.72;;;17.98;100.00
19674;BME280;9986;50.610;7.230;2023-09-08T00:16:43;147454.55;;;18.52;100.00
19674;BME280;9986;50.610;7.230;2023-09-08T00:27:19;147479.88;;;18.62;100.00
19674;BME280;9986;50.610;7.230;2023-09-08T00:35:19;147415.25;;;18.37;100.00
19674;BME280;9986;50.610;7.230;2023-09-08T00:43:16;147383.63;;;18.24;100.00
19674;BME280;9986;50.610;7.230;2023-09-08T00:48:29;147381.08;;;18.23;100.00
19674;BME280;9986;50.610;7.230;2023-09-08T00:53:42;147365.81;;;18.17;100.00
19674;BME280;9986;50.610;7.230;2023-09-08T00:58:56;147343.03;;;18.08;100.00
19674;BME280;9986;50.610;7.230;2023-09-08T01:06:50;147315.19;;;17.97;100.00
19674;BME280;9986;50.610;7.230;2023-09-08T01:14:43;147275.97;;;17.82;100.00
19674;BME280;9986;50.610;7.230;2023-09-08T01:19:58;147273.42;;;17.81;100.00
19674;BME280;9986;50.610;7.230;2023-09-08T01:25:14;147225.31;;;17.62;100.00
19674;BME280;9986;50.610;7.230;2023-09-08T01:30:30;147175.94;;;17.43;100.00
19674;BME280;9986;50.610;7.230;2023-09-08T01:35:50;147208.84;;;17.56;100.00
19674;BME280;9986;50.610;7.230;2023-09-08T01:41:05;147206.31;;;17.55;100.00
19674;BME280;9986;50.610;7.230;2023-09-08T01:46:18;147154.44;;;17.34;100.00
19674;BME280;9986;50.610;7.230;2023-09-08T01:51:30;147106.33;;;17.15;100.00
19674;BME280;9986;50.610;7.230;2023-09-08T02:04:44;147139.22;;;17.28;100.00
19674;BME280;9986;50.610;7.230;2023-09-08T02:09:51;147167.09;;;17.39;100.00
19674;BME280;9986;50.610;7.230;2023-09-08T02:15:05;147137.94;;;17.28;100.00
19674;BME280;9986;50.610;7.230;2023-09-08T02:20:13;147049.39;;;16.93;100.00
19674;BME280;9986;50.610;7.230;2023-09-08T02:25:26;147079.75;;;17.05;100.00
19674;BME280;9986;50.610;7.230;2023-09-08T02:38:38;147077.22;;;17.04;100.00
19674;BME280;9986;50.610;7.230;2023-09-08T02:51:55;147022.81;;;16.83;100.00
19674;BME280;9986;50.610;7.230;2023-09-08T02:57:08;147011.44;;;16.78;100.00
19674;BME280;9986;50.610;7.230;2023-09-08T03:05:01;147006.38;;;16.76;100.00
19674;BME280;9986;50.610;7.230;2023-09-08T03:18:17;146976.03;;;16.64;100.00
19674;BME280;9986;50.610;7.230;2023-09-08T03:23:34;146953.28;;;16.55;100.00
19674;BME280;9986;50.610;7.230;2023-09-08T03:36:43;146921.66;;;16.43;100.00
19674;BME280;9986;50.610;7.230;2023-09-08T04:06:02;146829.31;;;16.06;100.00
19674;BME280;9986;50.610;7.230;2023-09-08T04:11:15;146845.75;;;16.13;100.00
19674;BME280;9986;50.610;7.230;2023-09-08T04:27:15;146834.37;;;16.08;100.00
19674;BME280;9986;50.610;7.230;2023-09-08T04:32:28;146793.97;;;15.93;100.00
19674;BME280;9986;50.610;7.230;2023-09-08T04:37:41;146814.17;;;16.00;100.00
19674;BME280;9986;50.610;7.230;2023-09-08T04:48:06;146781.31;;;16.00;100.00
19674;BME280;9986;50.610;7.230;2023-09-08T04:56:01;146793.97;;;15.93;100.00
19674;BME280;9986;50.610;7.230;2023-09-08T05:11:42;146761.12;;;15.80;100.00
19674;BME280;9986;50.610;7.230;2023-09-08T05:19:33;146776.25;;;15.86;100.00
19674;BME280;9986;50.610;7.230;2023-09-08T05:24:45;146749.70;;;15.75;100.00
19674;BME280;9986;50.610;7.230;2023-09-08T05:32:36;145391.88;;;15.75;100.00
19674;BME280;9986;50.610;7.230;2023-09-08T05:40:27;141916.50;;;15.70;100.00
19674;BME280;9986;50.610;7.230;2023-09-08T05:45:40;146733.28;;;15.78;100.00
19674;BME280;9986;50.610;7.230;2023-09-08T05:59:13;138144.13;;;15.74;100.00
19674;BME280;9986;50.610;7.230;2023-09-08T06:07:06;106134.09;;;15.67;100.00
19674;BME280;9986;50.610;7.230;2023-09-08T06:17:35;135236.23;;;15.80;100.00
19674;BME280;9986;50.610;7.230;2023-09-08T06:30:46;138187.00;;;15.92;100.00
19674;BME280;9986;50.610;7.230;2023-09-08T06:46:33;83618.45;;;16.08;100.00
19674;BME280;9986;50.610;7.230;2023-09-08T07:02:22;59212.90;;;16.59;100.00
19674;BME280;9986;50.610;7.230;2023-09-08T07:10:14;57231.35;;;16.84;100.00
19674;BME280;9986;50.610;7.230;2023-09-08T07:17:59;53710.33;;;17.16;100.00
19674;BME280;9986;50.610;7.230;2023-09-08T07:28:30;96902.00;;;17.39;100.00
19674;BME280;9986;50.610;7.230;2023-09-08T07:39:01;147249.36;;;17.72;100.00
19674;BME280;9986;50.610;7.230;2023-09-08T07:46:58;147297.44;;;17.90;100.00
19674;BME280;9986;50.610;7.230;2023-09-08T07:52:11;147343.03;;;18.08;100.00
19674;BME280;9986;50.610;7.230;2023-09-08T07:57:24;147412.72;;;18.36;100.00
19674;BME280;9986;50.610;7.230;2023-09-08T08:05:22;147420.31;;;18.39;100.00
19674;BME280;9986;50.610;7.230;2023-09-08T08:13:19;147501.42;;;18.71;100.00
19674;BME280;9986;50.610;7.230;2023-09-08T08:18:26;147536.89;;;18.84;100.00
19674;BME280;9986;50.610;7.230;2023-09-08T08:28:49;147637.03;;;19.24;100.00
19674;BME280;9986;50.610;7.230;2023-09-08T08:39:30;147720.72;;;19.57;100.00
19674;BME280;9986;50.610;7.230;2023-09-08T08:47:21;147822.22;;;19.96;100.00
19674;BME280;9986;50.610;7.230;2023-09-08T08:52:28;147848.81;;;20.07;100.00
19674;BME280;9986;50.610;7.230;2023-09-08T09:02:59;147878.02;;;20.18;100.00
19674;BME280;9986;50.610;7.230;2023-09-08T09:10:51;148053.19;;;20.87;100.00
19674;BME280;9986;50.610;7.230;2023-09-08T09:21:47;148119.19;;;21.13;100.00
19674;BME280;9986;50.610;7.230;2023-09-08T09:29:44;148246.22;;;21.63;100.00
19674;BME280;9986;50.610;7.230;2023-09-08T09:40:20;148302.09;;;21.84;100.00
19674;BME280;9986;50.610;7.230;2023-09-08T09:53:42;148338.97;;;21.99;100.00
19674;BME280;9986;50.610;7.230;2023-09-08T09:58:55;148379.59;;;22.15;100.00
19674;BME280;9986;50.610;7.230;2023-09-08T10:04:09;148416.47;;;22.29;100.00
19674;BME280;9986;50.610;7.230;2023-09-08T10:09:23;148597.00;;;23.00;100.00
19674;BME280;9986;50.610;7.230;2023-09-08T10:33:45;148653.05;;;23.22;100.00
19674;BME280;9986;50.610;7.230;2023-09-08T10:39:31;148837.56;;;23.94;100.00
19674;BME280;9986;50.610;7.230;2023-09-08T10:53:17;149070.56;;;24.85;100.00
19674;BME280;9986;50.610;7.230;2023-09-08T10:58:33;148991.64;;;24.54;100.00
19674;BME280;9986;50.610;7.230;2023-09-08T11:11:50;149136.80;;;25.11;100.00
19674;BME280;9986;50.610;7.230;2023-09-08T11:17:05;149191.62;;;25.32;100.00
19674;BME280;9986;50.610;7.230;2023-09-08T11:25:08;149350.98;;;25.94;100.00
19674;BME280;9986;50.610;7.230;2023-09-08T11:30:23;149340.78;;;25.90;100.00
19674;BME280;9986;50.610;7.230;2023-09-08T11:38:15;149433.86;;;26.27;100.00
19674;BME280;9986;50.610;7.230;2023-09-08T11:51:34;149846.09;;;27.87;100.00
19674;BME280;9986;50.610;7.230;2023-09-08T12:02:09;150168.06;;;29.13;100.00
19674;BME280;9986;50.610;7.230;2023-09-08T12:15:33;150347.09;;;29.82;100.00
19674;BME280;9986;50.610;7.230;2023-09-08T12:20:46;150334.34;;;29.77;100.00
19674;BME280;9986;50.610;7.230;2023-09-08T12:31:42;150498.08;;;30.41;100.00
19674;BME280;9986;50.610;7.230;2023-09-08T12:36:59;150554.41;;;30.63;89.06
19674;BME280;9986;50.610;7.230;2023-09-08T12:44:49;150813.03;;;31.63;88.71
19674;BME280;9986;50.610;7.230;2023-09-08T12:52:46;150856.58;;;31.80;95.11
19674;BME280;9986;50.610;7.230;2023-09-08T13:03:29;150820.72;;;31.66;87.36
19674;BME280;9986;50.610;7.230;2023-09-08T13:08:42;150901.41;;;31.98;86.88
19674;BME280;9986;50.610;7.230;2023-09-08T13:13:55;150889.88;;;31.93;87.16
19674;BME280;9986;50.610;7.230;2023-09-08T13:19:09;150741.28;;;31.36;94.14
19674;BME280;9986;50.610;7.230;2023-09-08T13:24:22;151046.19;;;32.54;89.40
19674;BME280;9986;50.610;7.230;2023-09-08T13:34:59;151129.53;;;32.86;87.13
19674;BME280;9986;50.610;7.230;2023-09-08T13:42:50;151161.61;;;32.99;79.94
19674;BME280;9986;50.610;7.230;2023-09-08T13:53:29;151282.13;;;33.45;87.48
19674;BME280;9986;50.610;7.230;2023-09-08T13:58:44;151139.81;;;32.90;85.77
19674;BME280;9986;50.610;7.230;2023-09-08T14:03:58;151297.55;;;33.51;81.43
19674;BME280;9986;50.610;7.230;2023-09-08T14:12:06;151280.87;;;33.45;83.87
19674;BME280;9986;50.610;7.230;2023-09-08T14:20:04;151148.77;;;32.94;83.23
19674;BME280;9986;50.610;7.230;2023-09-08T14:25:19;151361.70;;;33.76;81.87
19674;BME280;9986;50.610;7.230;2023-09-08T14:33:18;151241.14;;;33.30;79.50
19674;BME280;9986;50.610;7.230;2023-09-08T14:43:54;151396.31;;;33.90;78.79
19674;BME280;9986;50.610;7.230;2023-09-08T14:57:01;151310.33;;;33.56;81.25
19674;BME280;9986;50.610;7.230;2023-09-08T15:02:14;151300.11;;;33.52;83.96
19674;BME280;9986;50.610;7.230;2023-09-08T15:12:49;151336.06;;;33.66;81.35
19674;BME280;9986;50.610;7.230;2023-09-08T15:18:02;151312.91;;;33.57;82.33
19674;BME280;9986;50.610;7.230;2023-09-08T15:23:15;151236.02;;;33.28;77.79
19674;BME280;9986;50.610;7.230;2023-09-08T15:33:50;151200.11;;;33.14;81.72
19674;BME280;9986;50.610;7.230;2023-09-08T15:44:34;151093.66;;;32.72;76.35
19674;BME280;9986;50.610;7.230;2023-09-08T15:52:25;151038.55;;;32.51;83.47
19674;BME280;9986;50.610;7.230;2023-09-08T15:57:38;151009.06;;;32.40;80.38
19674;BME280;9986;50.610;7.230;2023-09-08T16:02:51;150898.83;;;31.97;82.26
19674;BME280;9986;50.610;7.230;2023-09-08T16:16:24;150993.66;;;32.34;85.62
19674;BME280;9986;50.610;7.230;2023-09-08T16:26:53;150864.28;;;31.83;87.83
19674;BME280;9986;50.610;7.230;2023-09-08T16:32:28;150773.31;;;31.48;86.61
19674;BME280;9986;50.610;7.230;2023-09-08T16:40:24;150757.92;;;31.42;89.00
19674;BME280;9986;50.610;7.230;2023-09-08T16:45:39;150697.80;;;31.19;88.39
19674;BME280;9986;50.610;7.230;2023-09-08T16:50:52;150646.53;;;30.99;91.85
19674;BME280;9986;50.610;7.230;2023-09-08T16:56:05;150615.81;;;30.87;91.62
19674;BME280;9986;50.610;7.230;2023-09-08T17:09:25;150471.20;;;30.31;93.03
19674;BME280;9986;50.610;7.230;2023-09-08T17:20:01;150347.09;;;29.82;96.76
19674;BME280;9986;50.610;7.230;2023-09-08T17:25:10;150247.37;;;29.44;98.90
19674;BME280;9986;50.610;7.230;2023-09-08T17:30:25;150247.37;;;29.44;98.16
19674;BME280;9986;50.610;7.230;2023-09-08T17:38:17;150152.75;;;29.07;100.00
19674;BME280;9986;50.610;7.230;2023-09-08T17:43:31;150076.03;;;28.77;100.00
19674;BME280;9986;50.610;7.230;2023-09-08T17:54:15;149936.77;;;28.23;100.00
19674;BME280;9986;50.610;7.230;2023-09-08T18:02:05;149846.09;;;27.87;100.00
19674;BME280;9986;50.610;7.230;2023-09-08T18:09:56;149774.56;;;27.59;100.00
19674;BME280;9986;50.610;7.230;2023-09-08T18:15:10;149726.09;;;27.41;100.00
19674;BME280;9986;50.610;7.230;2023-09-08T18:25:39;149590.78;;;26.88;100.00
19674;BME280;9986;50.610;7.230;2023-09-08T18:44:53;149302.48;;;25.75;100.00
19674;BME280;9986;50.610;7.230;2023-09-08T18:52:52;149255.33;;;25.57;100.00
19674;BME280;9986;50.610;7.230;2023-09-08T18:58:06;149294.87;;;25.72;100.00
19674;BME280;9986;50.610;7.230;2023-09-08T19:17:00;149130.44;;;25.08;100.00
19674;BME280;9986;50.610;7.230;2023-09-08T19:22:16;149138.09;;;25.11;100.00
19674;BME280;9986;50.610;7.230;2023-09-08T19:35:39;149033.66;;;24.70;100.00
19674;BME280;9986;50.610;7.230;2023-09-08T19:41:01;149055.31;;;24.79;100.00
19674;BME280;9986;50.610;7.230;2023-09-08T19:46:14;149020.91;;;24.65;100.00
19674;BME280;9986;50.610;7.230;2023-09-08T19:51:28;148994.19;;;24.55;100.00
19674;BME280;9986;50.610;7.230;2023-09-08T19:56:41;148960.98;;;24.42;100.00
19674;BME280;9986;50.610;7.230;2023-09-08T20:01:54;148910.09;;;24.22;100.00
19674;BME280;9986;50.610;7.230;2023-09-08T20:12:32;148805.73;;;23.81;100.00
19674;BME280;9986;50.610;7.230;2023-09-08T20:31:21;148687.36;;;23.35;100.00
19674;BME280;9986;50.610;7.230;2023-09-08T20:36:34;148632.66;;;23.14;100.00
19674;BME280;9986;50.610;7.230;2023-09-08T21:13:44;148398.66;;;22.22;100.00
19674;BME280;9986;50.610;7.230;2023-09-08T21:21:34;148291.97;;;21.80;100.00
19674;BME280;9986;50.610;7.230;2023-09-08T21:34:44;148326.25;;;21.94;100.00
19674;BME280;9986;50.610;7.230;2023-09-08T21:42:41;148285.58;;;21.78;100.00
19674;BME280;9986;50.610;7.230;2023-09-08T21:47:48;148266.52;;;21.70;100.00
19674;BME280;9986;50.610;7.230;2023-09-08T21:55:47;148143.28;;;21.22;100.00
19674;BME280;9986;50.610;7.230;2023-09-08T22:08:59;148180.13;;;21.37;100.00
19674;BME280;9986;50.610;7.230;2023-09-08T22:24:56;148109.03;;;21.09;100.00
19674;BME280;9986;50.610;7.230;2023-09-08T22:41:02;148030.31;;;20.78;100.00
19674;BME280;9986;50.610;7.230;2023-09-08T22:59:30;147875.47;;;20.17;100.00
19674;BME280;9986;50.610;7.230;2023-09-08T23:04:43;147933.81;;;20.40;100.00
19674;BME280;9986;50.610;7.230;2023-09-08T23:12:40;147822.22;;;19.96;100.00
19674;BME280;9986;50.610;7.230;2023-09-08T23:25:55;147880.56;;;20.19;100.00
19674;BME280;9986;50.610;7.230;2023-09-08T23:39:05;147839.95;;;20.03;100.00
19674;BME280;9986;50.610;7.230;2023-09-08T23:44:20;147834.88;;;20.01;100.00
19674;BME280;9986;50.610;7.230;2023-09-08T23:57:45;147776.50;;;19.78;100.00
